createdAt,value
2023-10-24T00:00:00.660Z,0
2023-10-24T00:16:00.897Z,0
2023-10-24T00:31:01.689Z,0
2023-10-24T00:46:02.817Z,0
2023-10-24T01:00:03.238Z,0
2023-10-24T01:16:04.215Z,0
2023-10-24T01:31:05.203Z,0
2023-10-24T01:46:01.110Z,0
2023-10-24T02:00:01.786Z,0
2023-10-24T02:16:02.605Z,0
2023-10-24T02:31:03.526Z,0
2023-10-24T02:46:04.300Z,0
2023-10-24T03:00:05.024Z,0
2023-10-24T03:16:00.896Z,0
2023-10-24T03:31:01.384Z,0
2023-10-24T03:46:02.304Z,0
2023-10-24T04:00:02.891Z,0
2023-10-24T04:16:03.946Z,0
2023-10-24T04:31:04.491Z,0
2023-10-24T04:46:05.237Z,0
2023-10-24T05:00:00.852Z,0
2023-10-24T05:16:01.612Z,0
2023-10-24T05:31:02.440Z,0
2023-10-24T05:46:03.021Z,0
2023-10-24T06:00:03.719Z,5
2023-10-24T06:16:04.387Z,9
2023-10-24T06:31:05.067Z,30
2023-10-24T06:46:00.783Z,72
2023-10-24T07:00:01.529Z,91
2023-10-24T07:16:02.681Z,94
2023-10-24T07:31:03.472Z,83
2023-10-24T07:46:04.166Z,46
2023-10-24T08:00:04.711Z,45
2023-10-24T08:16:09.633Z,53
2023-10-24T08:31:01.113Z,45
2023-10-24T08:46:01.934Z,88
2023-10-24T09:00:02.444Z,166
2023-10-24T09:16:04.760Z,132
2023-10-24T09:31:03.826Z,79
2023-10-24T09:46:04.449Z,63
2023-10-24T10:00:04.919Z,64
2023-10-24T10:16:03.306Z,65
2023-10-24T10:32:42.645Z,72
2023-10-24T10:46:02.013Z,74
2023-10-24T11:00:02.756Z,71
2023-10-24T11:16:03.834Z,72
2023-10-24T11:31:04.612Z,65
2023-10-24T11:46:05.063Z,68
2023-10-24T12:00:02.854Z,49
2023-10-24T12:16:01.497Z,38
2023-10-24T12:31:02.196Z,37
2023-10-24T12:46:02.953Z,29
2023-10-24T13:00:03.498Z,44
2023-10-24T13:16:04.375Z,43
2023-10-24T13:31:14.360Z,31
2023-10-24T13:46:01.233Z,21
2023-10-24T14:00:01.747Z,19
2023-10-24T14:16:02.622Z,25
2023-10-24T14:31:02.927Z,17
2023-10-24T14:46:03.627Z,15
2023-10-24T15:00:04.258Z,8
2023-10-24T15:16:05.301Z,8
2023-10-24T15:31:00.988Z,10
2023-10-24T15:46:02.067Z,0
2023-10-24T16:00:02.497Z,0
2023-10-24T16:16:03.273Z,0
2023-10-24T16:31:04.022Z,0
2023-10-24T16:46:04.734Z,0
2023-10-24T17:00:00.450Z,0
2023-10-24T17:16:00.830Z,0
2023-10-24T17:31:01.708Z,0
2023-10-24T17:46:02.193Z,0
2023-10-24T18:00:02.599Z,0
2023-10-24T18:16:03.576Z,0
2023-10-24T18:31:04.118Z,0
2023-10-24T18:46:04.933Z,0
2023-10-24T19:00:00.770Z,0
2023-10-24T19:16:01.646Z,0
2023-10-24T19:31:02.297Z,0
2023-10-24T19:46:02.922Z,0
2023-10-24T20:00:03.759Z,0
2023-10-24T20:16:04.421Z,0
2023-10-24T20:31:05.198Z,0
2023-10-24T20:46:01.194Z,0
2023-10-24T21:00:01.499Z,0
2023-10-24T21:16:02.559Z,0
2023-10-24T21:31:03.002Z,0
2023-10-24T21:46:03.890Z,0
2023-10-24T22:00:04.616Z,0
2023-10-24T22:16:00.466Z,0
2023-10-24T22:31:00.881Z,0
2023-10-24T22:46:01.844Z,0
2023-10-24T23:02:15.421Z,0
2023-10-24T23:16:03.036Z,0
2023-10-24T23:31:03.731Z,0
